Autodesk Quick Ratio 2006-2019 | ADSK

Historical quick ratio values for Autodesk (ADSK) over the last 10 years.
Autodesk Quick Ratio Historical Data
Date Current Assets - Inventory Current Liabilities Quick Ratio
2019-10-31 $0.00B $2.84B 0.00
2019-07-31 $0.00B $2.71B 0.00
2019-04-30 $0.00B $2.22B 0.00
2019-01-31 $0.00B $2.30B 0.00
2018-10-31 $0.00B $1.99B 0.00
2018-07-31 $0.00B $1.92B 0.00
2018-04-30 $0.00B $1.85B 0.00
2018-01-31 $0.00B $2.12B 0.00
2017-10-31 $0.00B $1.75B 0.00
2017-07-31 $0.00B $1.70B 0.00
2017-04-30 $0.00B $2.05B 0.00
2017-01-31 $0.00B $2.19B 0.00
2016-10-31 $0.00B $1.60B 0.00
2016-07-31 $0.00B $1.56B 0.00
2016-04-30 $0.00B $1.48B 0.00
2016-01-31 $0.00B $1.59B 0.00
2015-10-31 $0.00B $1.31B 0.00
2015-07-31 $0.00B $1.31B 0.00
2015-04-30 $0.00B $1.27B 0.00
2015-01-31 $0.00B $1.40B 0.00
2014-10-31 $0.00B $1.19B 0.00
2014-07-31 $0.00B $1.16B 0.00
2014-04-30 $0.00B $1.12B 0.00
2014-01-31 $0.00B $1.07B 0.00
2013-10-31 $0.00B $0.95B 0.00
2013-07-31 $0.00B $0.96B 0.00
2013-04-30 $0.00B $0.98B 0.00
2013-01-31 $0.00B $1.04B 0.00
2012-10-31 $0.00B $0.99B 0.00
2012-07-31 $0.00B $0.90B 0.00
2012-04-30 $0.00B $0.88B 0.00
2012-01-31 $0.00B $0.95B 0.00
2011-10-31 $0.00B $0.81B 0.00
2011-07-31 $0.00B $0.83B 0.00
2011-04-30 $0.00B $0.82B 0.00
2011-01-31 $0.00B $0.87B 0.00
2010-10-31 $0.00B $0.74B 0.00
2010-07-31 $0.00B $0.72B 0.00
2010-04-30 $0.00B $0.71B 0.00
2010-01-31 $0.00B $0.70B 0.00
2009-10-31 $0.00B $0.63B 0.00
2009-07-31 $0.00B $0.66B 0.00
2009-04-30 $0.00B $0.68B 0.00
2009-01-31 $0.00B $0.80B 0.00
2008-10-31 $0.00B $0.66B 0.00
2008-07-31 $0.00B $0.87B 0.00
2008-04-30 $0.00B $0.74B 0.00
2008-01-31 $0.00B $0.73B 0.00
2007-10-31 $0.00B $0.61B 0.00
2007-07-31 $0.00B $0.60B 0.00
2007-04-30 $0.00B $0.59B 0.00
2007-01-31 $0.00B $0.57B 0.00
2006-10-31 $0.96B $0.51B 1.88
2006-07-31 $0.83B $0.50B 1.67
2006-04-30 $0.77B $0.52B 1.49
2006-01-31 $0.73B $0.49B 1.50
2005-10-31 $0.85B $0.46B 1.82
2005-07-31 $0.79B $0.44B 1.82
2005-04-30 $0.78B $0.44B 1.79
2005-01-31 $0.77B $0.47B 1.64
Sector Industry Market Cap Revenue
Computer and Technology Computer Software $43.828B $2.570B
Autodesk, Inc., is a leader in 3D design, engineering and entertainment software. Since its introduction of AutoCAD software in 1982, Autodesk continues to develop the broadest portfolio of 3D software for global markets. Customers across the manufacturing, architecture, building, construction, and media and entertainment industries-including the last 19 Academy Award winners for Best Visual Effects-use Autodesk software to design, visualize, and simulate their ideas before they're ever built or created. From blockbuster visual effects and buildings that create their own energy, to electric cars and the batteries that power them, the work of our 3D software customers is everywhere you look. Through their apps for iPhone, iPad, iPod, and Android, they're also making design technology accessible to professional designers and amateur designers, homeowners, students, and casual creators - anyone who wants to create and share their ideas with the world.
Stock Name Country Market Cap PE Ratio
Microsoft (MSFT) United States $1000.000B 33.07
Oracle (ORCL) United States $173.438B 16.09
Adobe (ADBE) United States $169.406B 53.97
SAP SE (SAP) Germany $165.982B 31.11
Salesforce (CRM) United States $161.532B 134.90
Intuit (INTU) United States $74.987B 50.90
VMware (VMW) United States $61.745B 33.55
Dassault Systemes SA (DASTY) France $46.291B 51.58
ANSYS (ANSS) United States $23.349B 51.55
Synopsys (SNPS) United States $23.190B 44.40
Cadence Design Systems (CDNS) United States $20.927B 49.07
Citrix Systems (CTXS) United States $16.702B 31.28
SS&C Technologies Holdings (SSNC) United States $16.540B 18.81
Open Text (OTEX) Canada $12.556B 38.67
PTC (PTC) United States $9.938B 62.81
Aspen Technology (AZPN) United States $9.570B 35.79
Trend Micro (TMICY) Japan $7.383B 27.53
Pegasystems (PEGA) United States $6.959B 0.00
Konami (KNMCY) Japan $5.678B 19.71
Nuance Communications (NUAN) United States $5.576B 22.55
Manhattan Associates (MANH) United States $5.487B 58.81
ACI Worldwide (ACIW) United States $4.144B 38.55
Blackbaud (BLKB) United States $3.933B 54.77
Verint Systems (VRNT) United States $3.890B 22.56
Descartes Systems Group (DSGX) Canada $3.856B 114.55
Cornerstone OnDemand (CSOD) United States $3.698B 380.69
PROS Holdings (PRO) United States $2.697B 0.00
Bottomline Technologies (EPAY) United States $2.418B 105.77
Progress Software (PRGS) United States $2.095B 20.52
CommVault Systems (CVLT) United States $2.084B 81.39
MicroStrategy (MSTR) United States $1.470B 433.82
Sapiens (SPNS) Israel $1.317B 38.13
QAD (QADB) United States $0.758B 465.63
Simulations Plus (SLP) United States $0.595B 67.42
Magic Software Enterprises (MGIC) Israel $0.545B 19.53
American Software (AMSWA) United States $0.479B 51.72
Rosetta Stone (RST) United States $0.435B 0.00
Avid Technology (AVID) United States $0.381B 20.60
Smith Micro Software (SMSI) United States $0.193B 17.28
Icad Inc (ICAD) United States $0.168B 0.00
ServiceSource (SREV) United States $0.166B 0.00
OptimizeRx (OPRX) United States $0.145B 0.00
Park City (PCYG) United States $0.098B 35.29
ImageWare Systems (IWSY) United States $0.053B 0.00
NetSol Technologies (NTWK) United States $0.050B 6.54
GSE Systems (GVP) United States $0.035B 11.60
Neonode (NEON) Sweden $0.024B 0.00
BSQUARE (BSQR) United States $0.020B 0.00
CounterPath (CPAH) Canada $0.012B 0.00